Time;durP1;ratioP1;P1;durP2;ratioP2;P2;SDS_P1;SDS_P2;PMS_P1;PMS_P2;Temp;Humidity;BMP_temperature;BMP_pressure;BME280_temperature;BME280_humidity;BME280_pressure;Samples;Min_cycle;Max_cycle;Signal;HPM_P1;HPM_P2
2021/05/21 00:00:17;;;;;;;6.90;6.50;;;11.80;99.90;;;;;;5012126;28;20222;-77
2021/05/21 00:02:43;;;;;;;6.40;6.00;;;11.80;99.90;;;;;;5016819;28;20985;-77
2021/05/21 00:05:11;;;;;;;7.10;6.60;;;11.80;99.90;;;;;;5023696;28;20200;-77
2021/05/21 00:07:38;;;;;;;6.60;6.20;;;11.80;99.90;;;;;;5019513;28;20226;-77
2021/05/21 00:10:05;;;;;;;6.70;6.30;;;11.80;99.90;;;;;;5010196;28;20204;-77
2021/05/21 00:12:31;;;;;;;6.40;6.10;;;11.80;99.90;;;;;;5021859;28;20212;-77
2021/05/21 00:14:58;;;;;;;6.67;6.13;;;11.80;99.90;;;;;;5005297;28;20346;-77
2021/05/21 00:17:24;;;;;;;6.93;6.53;;;11.90;99.90;;;;;;5004090;28;20265;-77
2021/05/21 00:19:50;;;;;;;6.67;6.17;;;11.90;99.90;;;;;;5019829;28;20211;-77
2021/05/21 00:22:17;;;;;;;6.90;6.50;;;11.90;99.90;;;;;;5023339;28;20224;-77
2021/05/21 00:24:44;;;;;;;6.90;6.50;;;11.90;99.90;;;;;;5005353;28;20545;-77
2021/05/21 00:27:10;;;;;;;6.70;6.30;;;11.90;99.90;;;;;;5021545;28;20207;-76
2021/05/21 00:29:36;;;;;;;7.20;6.70;;;11.90;99.90;;;;;;5022390;28;20208;-77
2021/05/21 00:32:03;;;;;;;6.80;6.40;;;11.90;99.90;;;;;;5004894;28;20204;-77
2021/05/21 00:34:29;;;;;;;6.87;6.37;;;11.90;99.90;;;;;;5021624;28;20208;-77
2021/05/21 00:36:55;;;;;;;6.40;6.00;;;11.90;99.90;;;;;;5022482;28;20222;-77
2021/05/21 00:39:23;;;;;;;6.90;6.40;;;11.90;99.90;;;;;;5008151;28;20203;-77
2021/05/21 00:41:49;;;;;;;7.40;6.90;;;11.80;99.90;;;;;;5021716;28;20227;-77
2021/05/21 00:44:15;;;;;;;7.00;6.60;;;11.70;99.90;;;;;;5012955;28;20235;-77
2021/05/21 00:46:42;;;;;;;7.20;6.60;;;11.60;99.90;;;;;;5026510;28;20204;-77
2021/05/21 00:49:09;;;;;;;6.83;6.33;;;11.60;99.90;;;;;;5025288;28;20230;-76
2021/05/21 00:51:35;;;;;;;7.00;6.60;;;11.60;99.90;;;;;;5021531;28;20204;-77
2021/05/21 00:54:02;;;;;;;6.93;6.53;;;11.50;99.90;;;;;;5022603;28;20228;-77
2021/05/21 00:56:32;;;;;;;7.60;7.00;;;11.40;99.90;;;;;;5028489;28;20629;-76
2021/05/21 00:58:59;;;;;;;7.30;6.90;;;11.40;99.90;;;;;;5022851;28;20200;-77
2021/05/21 01:01:29;;;;;;;6.40;6.00;;;11.40;99.90;;;;;;5029539;28;20212;-77
2021/05/21 01:03:56;;;;;;;6.60;6.10;;;11.40;99.90;;;;;;5021302;28;20221;-77
2021/05/21 01:06:22;;;;;;;6.97;6.50;;;11.40;99.90;;;;;;5010580;28;20192;-77
2021/05/21 01:08:48;;;;;;;6.60;6.20;;;11.40;99.90;;;;;;5007043;28;20687;-77
2021/05/21 01:11:15;;;;;;;6.87;6.47;;;11.30;99.90;;;;;;5024238;28;20669;-76
2021/05/21 01:13:42;;;;;;;7.13;6.40;;;11.20;99.90;;;;;;5023073;28;20231;-76
2021/05/21 01:16:08;;;;;;;6.77;6.27;;;11.20;99.90;;;;;;5021385;28;20266;-77
2021/05/21 01:18:35;;;;;;;6.90;6.40;;;11.10;99.90;;;;;;5014706;28;20307;-77
2021/05/21 01:21:03;;;;;;;7.00;6.50;;;11.10;99.90;;;;;;5013128;28;20227;-77
2021/05/21 01:23:29;;;;;;;6.73;6.23;;;11.10;99.90;;;;;;4996618;28;20220;-77
2021/05/21 01:25:55;;;;;;;6.80;6.40;;;11.10;99.90;;;;;;5020341;28;20277;-77
2021/05/21 01:28:22;;;;;;;6.63;6.23;;;11.00;99.90;;;;;;5005241;28;20208;-77
2021/05/21 01:30:49;;;;;;;6.80;6.30;;;11.00;99.90;;;;;;5020543;28;20207;-77
2021/05/21 01:33:15;;;;;;;6.40;6.10;;;11.00;99.90;;;;;;5020891;28;20208;-77
2021/05/21 01:35:42;;;;;;;7.23;6.77;;;11.00;99.90;;;;;;5025814;28;20192;-76
2021/05/21 01:38:12;;;;;;;6.90;6.50;;;11.00;99.90;;;;;;5025488;28;20205;-77
2021/05/21 01:40:38;;;;;;;6.70;6.30;;;10.90;99.90;;;;;;5022017;28;20239;-77
2021/05/21 01:43:05;;;;;;;7.00;6.50;;;11.00;99.90;;;;;;5021820;28;20644;-78
2021/05/21 01:45:32;;;;;;;6.80;6.40;;;10.90;99.90;;;;;;5017231;28;20200;-77
2021/05/21 01:47:59;;;;;;;7.60;7.10;;;11.00;99.90;;;;;;5014371;28;20258;-77
2021/05/21 01:50:26;;;;;;;7.40;6.90;;;11.00;99.90;;;;;;5029662;28;20196;-76
2021/05/21 01:52:52;;;;;;;7.20;6.80;;;10.90;99.90;;;;;;5018529;28;20215;-77
2021/05/21 01:55:19;;;;;;;6.90;6.50;;;10.90;99.90;;;;;;5024957;28;20197;-77
2021/05/21 01:57:45;;;;;;;6.60;6.20;;;11.00;99.90;;;;;;5021697;28;20189;-77
2021/05/21 02:00:13;;;;;;;7.20;6.80;;;11.00;99.90;;;;;;5022784;28;20712;-77
2021/05/21 02:02:40;;;;;;;7.00;6.60;;;11.00;99.90;;;;;;5021800;28;20284;-77
2021/05/21 02:05:08;;;;;;;6.70;6.30;;;11.00;99.90;;;;;;5017749;28;20207;-77
2021/05/21 02:07:35;;;;;;;6.47;6.07;;;11.00;99.90;;;;;;5019822;28;20223;-78
2021/05/21 02:10:03;;;;;;;7.00;6.60;;;11.00;99.90;;;;;;5017022;28;20209;-77
2021/05/21 02:12:32;;;;;;;6.87;6.47;;;11.00;99.90;;;;;;5021585;28;20220;-77
2021/05/21 02:15:00;;;;;;;6.80;6.40;;;10.90;99.90;;;;;;5002308;28;20283;-77
2021/05/21 02:17:27;;;;;;;7.80;7.30;;;10.80;99.90;;;;;;5020117;28;20331;-77
2021/05/21 02:19:57;;;;;;;7.07;6.67;;;10.80;99.90;;;;;;5021064;28;20201;-77
2021/05/21 02:22:24;;;;;;;7.00;6.50;;;10.70;99.90;;;;;;5006637;28;20216;-77
2021/05/21 02:24:53;;;;;;;7.83;7.23;;;10.70;99.90;;;;;;5025801;28;20235;-76
2021/05/21 02:27:19;;;;;;;7.27;6.83;;;10.70;99.90;;;;;;5021119;28;20669;-77
2021/05/21 02:29:46;;;;;;;7.13;6.70;;;10.60;99.90;;;;;;5019700;28;20202;-77
2021/05/21 02:32:13;;;;;;;7.30;6.80;;;10.50;99.90;;;;;;4998901;28;20243;-77
2021/05/21 02:34:39;;;;;;;7.80;7.40;;;10.50;99.90;;;;;;5024164;28;20227;-77
2021/05/21 02:37:05;;;;;;;7.10;6.70;;;10.50;99.90;;;;;;5024363;28;20664;-77
2021/05/21 02:39:32;;;;;;;7.00;6.60;;;10.40;99.90;;;;;;5024298;28;20215;-77
2021/05/21 02:41:58;;;;;;;7.00;6.60;;;10.40;99.90;;;;;;5024152;28;20274;-76
2021/05/21 02:44:24;;;;;;;7.30;6.70;;;10.40;99.90;;;;;;5067596;23;20308;-75
2021/05/21 02:46:51;;;;;;;7.50;7.10;;;10.40;99.90;;;;;;5068415;28;20610;-76
2021/05/21 02:49:20;;;;;;;7.33;6.73;;;10.40;99.90;;;;;;5071047;28;20247;-76
2021/05/21 02:51:47;;;;;;;8.27;7.77;;;10.40;99.90;;;;;;5047180;28;20206;-77
2021/05/21 02:54:13;;;;;;;8.13;7.57;;;10.30;99.90;;;;;;5030491;28;20215;-77
2021/05/21 02:56:40;;;;;;;7.50;7.00;;;10.30;99.90;;;;;;5047034;28;20191;-73
2021/05/21 02:59:06;;;;;;;7.30;6.90;;;10.30;99.90;;;;;;5046514;28;20195;-74
2021/05/21 03:01:33;;;;;;;7.80;7.30;;;10.40;99.90;;;;;;5045846;28;20750;-73
2021/05/21 03:04:00;;;;;;;8.20;7.60;;;10.30;99.90;;;;;;5047108;28;20221;-75
2021/05/21 03:06:26;;;;;;;7.93;7.40;;;10.30;99.90;;;;;;5031433;28;20210;-75
2021/05/21 03:08:53;;;;;;;7.90;7.30;;;10.30;99.90;;;;;;5052027;28;20206;-75
2021/05/21 03:11:19;;;;;;;7.63;7.13;;;10.30;99.90;;;;;;5051878;28;20199;-73
2021/05/21 03:13:46;;;;;;;8.73;8.10;;;10.30;99.90;;;;;;5047865;28;20222;-76
2021/05/21 03:16:12;;;;;;;8.03;7.53;;;10.30;99.90;;;;;;5043951;28;20196;-76
2021/05/21 03:18:39;;;;;;;7.77;7.27;;;10.30;99.90;;;;;;5034077;28;20200;-74
2021/05/21 03:21:06;;;;;;;7.70;7.20;;;10.20;99.90;;;;;;5031631;28;20257;-73
2021/05/21 03:23:33;;;;;;;8.20;7.60;;;10.30;99.90;;;;;;5022840;28;20219;-73
2021/05/21 03:25:59;;;;;;;8.10;7.50;;;10.30;99.90;;;;;;5037590;28;20206;-75
2021/05/21 03:28:26;;;;;;;9.43;8.67;;;10.20;99.90;;;;;;5048731;28;20192;-76
2021/05/21 03:30:52;;;;;;;8.93;8.33;;;10.20;99.90;;;;;;5040580;28;20195;-76
2021/05/21 03:33:19;;;;;;;8.13;7.53;;;10.20;99.90;;;;;;5025102;28;20216;-75
2021/05/21 03:35:45;;;;;;;8.23;7.67;;;10.30;99.90;;;;;;5026069;28;20233;-76
2021/05/21 03:38:13;;;;;;;8.43;7.80;;;10.20;99.90;;;;;;5036244;28;20199;-76
2021/05/21 03:40:41;;;;;;;8.33;7.73;;;10.20;99.90;;;;;;5023815;28;20216;-73
2021/05/21 03:43:08;;;;;;;8.70;8.00;;;10.20;99.90;;;;;;5041435;28;20892;-74
2021/05/21 03:45:35;;;;;;;8.70;8.10;;;10.20;99.90;;;;;;5039675;28;20199;-75
2021/05/21 03:48:01;;;;;;;8.60;7.90;;;10.10;99.90;;;;;;5040474;28;20188;-76
2021/05/21 03:50:28;;;;;;;8.73;7.97;;;10.10;99.90;;;;;;5023302;28;20196;-73
2021/05/21 03:52:54;;;;;;;9.53;8.70;;;10.00;99.90;;;;;;5021631;28;20222;-73
2021/05/21 03:55:21;;;;;;;9.20;8.30;;;10.00;99.90;;;;;;5040571;28;20661;-74
2021/05/21 03:57:48;;;;;;;8.60;7.90;;;10.00;99.90;;;;;;5040765;28;20203;-76
2021/05/21 04:00:16;;;;;;;8.67;8.07;;;10.00;99.90;;;;;;5035862;28;20211;-74
2021/05/21 04:02:44;;;;;;;8.40;7.80;;;10.00;99.90;;;;;;5021038;28;20654;-75
2021/05/21 04:05:11;;;;;;;8.37;7.77;;;10.10;99.90;;;;;;5041054;28;20192;-74
2021/05/21 04:07:38;;;;;;;8.10;7.60;;;10.20;99.90;;;;;;5023610;28;20210;-76
2021/05/21 04:10:05;;;;;;;7.90;7.40;;;10.20;99.90;;;;;;5043494;28;20188;-75
2021/05/21 04:12:32;;;;;;;7.83;7.43;;;10.30;99.90;;;;;;5047473;28;20232;-76
2021/05/21 04:14:58;;;;;;;7.97;7.47;;;10.30;99.90;;;;;;5052349;28;20218;-75
2021/05/21 04:17:24;;;;;;;8.27;7.70;;;10.20;99.90;;;;;;5046214;28;20212;-74
2021/05/21 04:19:51;;;;;;;8.43;7.83;;;10.20;99.90;;;;;;5047804;28;20200;-78
2021/05/21 04:22:17;;;;;;;7.80;7.30;;;10.10;99.90;;;;;;5030070;28;20226;-77
2021/05/21 04:24:44;;;;;;;8.10;7.60;;;10.10;99.90;;;;;;5027466;28;20246;-83
2021/05/21 04:27:10;;;;;;;8.20;7.60;;;10.10;99.90;;;;;;5037202;28;20209;-81
2021/05/21 04:29:38;;;;;;;7.93;7.43;;;10.10;99.90;;;;;;5045766;28;20634;-81
2021/05/21 04:32:05;;;;;;;8.10;7.60;;;10.20;99.90;;;;;;5050471;28;20187;-81
2021/05/21 04:34:32;;;;;;;7.97;7.47;;;10.10;99.90;;;;;;5029133;28;20238;-82
2021/05/21 04:36:58;;;;;;;8.20;7.67;;;10.20;99.90;;;;;;5026475;28;20242;-77
2021/05/21 04:39:25;;;;;;;7.30;6.90;;;10.20;99.90;;;;;;5025495;28;20269;-78
2021/05/21 04:41:51;;;;;;;8.43;7.83;;;10.10;99.90;;;;;;5017406;28;20223;-78
2021/05/21 04:44:18;;;;;;;7.83;7.33;;;10.20;99.90;;;;;;5034442;28;20712;-76
2021/05/21 04:46:45;;;;;;;7.33;6.83;;;10.20;99.90;;;;;;5036656;28;20864;-78
2021/05/21 04:49:11;;;;;;;7.40;6.90;;;10.30;99.90;;;;;;5026005;28;20203;-78
2021/05/21 04:51:37;;;;;;;7.47;6.97;;;10.30;99.90;;;;;;5039264;28;20195;-76
2021/05/21 04:54:04;;;;;;;7.37;6.87;;;10.50;99.90;;;;;;5042158;28;20265;-78
2021/05/21 04:56:31;;;;;;;5.30;5.00;;;10.60;99.90;;;;;;5047124;28;20191;-78
2021/05/21 04:58:57;;;;;;;4.70;4.33;;;10.70;99.90;;;;;;5031694;28;20200;-76
2021/05/21 05:01:24;;;;;;;6.80;6.40;;;10.90;99.90;;;;;;5030993;28;20212;-78
2021/05/21 05:03:51;;;;;;;7.10;6.70;;;11.00;99.90;;;;;;5040781;28;20226;-78
2021/05/21 05:06:17;;;;;;;7.73;7.23;;;11.10;99.90;;;;;;5047008;28;20290;-78
2021/05/21 05:08:44;;;;;;;8.40;7.77;;;11.20;99.90;;;;;;5041148;28;20199;-78
2021/05/21 05:11:10;;;;;;;7.97;7.37;;;11.30;99.90;;;;;;5047067;28;20198;-78
2021/05/21 05:13:36;;;;;;;8.10;7.40;;;11.30;99.90;;;;;;5045992;28;20602;-77
2021/05/21 05:16:03;;;;;;;7.60;7.07;;;11.30;99.90;;;;;;5031789;28;20203;-76
2021/05/21 05:18:29;;;;;;;7.83;7.23;;;11.30;99.90;;;;;;5046033;28;20203;-78
2021/05/21 05:20:56;;;;;;;7.50;7.00;;;11.40;99.90;;;;;;5047786;28;20219;-78
2021/05/21 05:23:23;;;;;;;7.77;7.17;;;11.40;99.90;;;;;;5040521;28;20215;-78
2021/05/21 05:25:49;;;;;;;7.40;6.90;;;11.50;99.90;;;;;;5045280;28;20206;-78
2021/05/21 05:28:16;;;;;;;7.13;6.63;;;11.60;99.90;;;;;;5044364;28;20196;-78
2021/05/21 05:30:42;;;;;;;7.30;6.90;;;11.70;99.90;;;;;;5035038;28;20195;-78
2021/05/21 05:33:11;;;;;;;6.70;6.30;;;12.00;99.90;;;;;;5036794;28;20220;-76
2021/05/21 05:35:37;;;;;;;6.40;6.10;;;12.20;99.90;;;;;;5033707;28;20206;-78
2021/05/21 05:38:04;;;;;;;6.90;6.40;;;12.40;99.90;;;;;;5027911;28;20588;-79
2021/05/21 05:40:33;;;;;;;6.30;5.90;;;12.60;99.90;;;;;;5033660;28;20206;-78
2021/05/21 05:42:59;;;;;;;6.50;6.00;;;12.80;99.90;;;;;;5026222;28;20230;-78
2021/05/21 05:45:25;;;;;;;6.47;6.07;;;13.00;99.90;;;;;;5033092;28;20215;-79
2021/05/21 05:47:52;;;;;;;6.37;5.97;;;13.10;99.90;;;;;;5042375;28;20211;-78
2021/05/21 05:50:18;;;;;;;6.63;6.17;;;13.30;99.90;;;;;;5044374;28;20200;-76
2021/05/21 05:52:44;;;;;;;6.23;5.93;;;13.50;99.90;;;;;;5027437;28;20221;-78
2021/05/21 05:55:13;;;;;;;6.50;6.10;;;13.60;99.90;;;;;;5045026;28;20252;-78
2021/05/21 05:57:39;;;;;;;6.40;6.00;;;13.80;99.90;;;;;;5027859;28;20287;-78
2021/05/21 06:00:06;;;;;;;4.07;3.87;;;14.00;99.90;;;;;;5033483;28;20203;-78
2021/05/21 06:02:35;;;;;;;5.50;5.20;;;14.20;99.90;;;;;;5045266;28;20218;-78
2021/05/21 06:05:02;;;;;;;6.50;6.10;;;14.30;99.90;;;;;;5026090;28;20206;-78
2021/05/21 06:07:29;;;;;;;6.23;5.83;;;14.50;99.90;;;;;;5024343;28;20663;-77
2021/05/21 06:09:55;;;;;;;5.43;5.03;;;14.40;99.90;;;;;;5047619;28;20198;-78
2021/05/21 06:12:22;;;;;;;5.30;5.00;;;14.30;99.90;;;;;;5043736;28;20199;-78
2021/05/21 06:14:49;;;;;;;4.77;4.47;;;14.30;99.90;;;;;;5048096;28;20194;-77
2021/05/21 06:17:18;;;;;;;4.40;4.10;;;14.40;99.90;;;;;;5042300;28;20207;-77
2021/05/21 06:19:45;;;;;;;2.73;2.47;;;14.40;99.90;;;;;;5048589;28;20208;-77
2021/05/21 06:22:12;;;;;;;3.10;2.83;;;14.50;99.90;;;;;;5026782;28;20598;-78
2021/05/21 06:24:39;;;;;;;3.90;3.60;;;14.50;99.90;;;;;;5042936;28;20222;-76
2021/05/21 06:27:24;;;;;;;3.50;3.20;;;14.50;99.90;;;;;;5049475;28;20663;-77
2021/05/21 06:29:51;;;;;;;5.23;4.83;;;14.50;99.90;;;;;;5024362;28;20203;-77
2021/05/21 06:32:18;;;;;;;4.50;4.10;;;14.40;99.90;;;;;;5047156;28;20217;-77
2021/05/21 06:34:44;;;;;;;4.00;3.60;;;14.40;99.90;;;;;;5025856;28;20220;-75
2021/05/21 06:37:11;;;;;;;5.90;5.50;;;14.30;99.90;;;;;;5043142;28;20199;-75
2021/05/21 06:39:37;;;;;;;7.10;6.63;;;14.30;99.90;;;;;;5044748;28;20191;-75
2021/05/21 06:42:03;;;;;;;7.30;6.80;;;14.20;99.90;;;;;;5043945;28;20215;-75
2021/05/21 06:44:30;;;;;;;7.50;6.90;;;14.20;99.90;;;;;;5040379;28;20228;-76
2021/05/21 06:46:58;;;;;;;7.30;6.77;;;14.20;99.90;;;;;;5030858;28;20195;-75
2021/05/21 06:49:24;;;;;;;5.23;4.87;;;14.20;99.90;;;;;;5046177;28;20204;-75
2021/05/21 06:51:51;;;;;;;7.03;6.53;;;14.30;99.90;;;;;;5026746;28;20576;-75
2021/05/21 06:54:18;;;;;;;7.13;6.63;;;14.20;99.90;;;;;;5046516;28;20257;-75
2021/05/21 06:56:44;;;;;;;7.20;6.70;;;14.20;99.90;;;;;;5040877;28;20672;-75
2021/05/21 06:59:11;;;;;;;5.13;4.73;;;14.20;99.90;;;;;;5031054;28;20202;-75
2021/05/21 07:01:37;;;;;;;4.83;4.53;;;14.20;99.90;;;;;;5040573;28;20217;-75
2021/05/21 07:04:05;;;;;;;3.40;3.10;;;14.30;99.90;;;;;;5048056;28;20230;-76
2021/05/21 07:06:31;;;;;;;5.60;5.27;;;14.30;99.90;;;;;;5040123;28;20203;-75
2021/05/21 07:08:57;;;;;;;4.20;3.90;;;14.40;99.90;;;;;;5035157;28;20574;-75
2021/05/21 07:11:23;;;;;;;4.20;3.80;;;14.50;99.90;;;;;;5030392;28;20192;-75
2021/05/21 07:13:50;;;;;;;5.00;4.70;;;14.60;99.90;;;;;;5050437;28;20227;-76
2021/05/21 07:16:16;;;;;;;5.90;5.50;;;14.80;99.90;;;;;;5041192;28;20684;-76
2021/05/21 07:18:42;;;;;;;5.80;5.43;;;15.00;99.90;;;;;;5044490;28;20203;-75
2021/05/21 07:21:09;;;;;;;4.70;4.40;;;15.10;99.90;;;;;;5041384;28;20220;-76
2021/05/21 07:23:36;;;;;;;4.50;4.20;;;15.20;99.90;;;;;;5046171;28;20213;-76
2021/05/21 07:26:02;;;;;;;5.07;4.77;;;15.30;99.90;;;;;;5028076;28;20196;-75
2021/05/21 07:28:28;;;;;;;2.80;2.60;;;15.40;99.90;;;;;;5047973;28;20204;-78
2021/05/21 07:30:55;;;;;;;3.13;2.50;;;15.60;99.90;;;;;;5040287;28;20568;-76
2021/05/21 07:33:21;;;;;;;4.50;4.10;;;15.70;99.90;;;;;;5043176;28;20221;-75
2021/05/21 07:35:48;;;;;;;2.80;2.70;;;15.90;99.90;;;;;;5037765;28;20204;-76
2021/05/21 07:38:16;;;;;;;2.13;1.93;;;16.10;99.90;;;;;;5031128;28;20567;-76
2021/05/21 07:40:42;;;;;;;2.20;2.00;;;16.40;99.90;;;;;;5044660;28;20201;-75
2021/05/21 07:43:08;;;;;;;2.00;1.90;;;16.60;99.90;;;;;;5039962;28;20224;-75
2021/05/21 07:45:35;;;;;;;3.77;3.57;;;16.80;99.90;;;;;;5045771;28;20212;-76
2021/05/21 07:48:01;;;;;;;3.50;3.20;;;16.90;99.90;;;;;;5038718;28;20577;-76
2021/05/21 07:50:28;;;;;;;3.40;3.20;;;17.10;99.90;;;;;;5025804;28;20206;-76
2021/05/21 07:52:54;;;;;;;7.10;6.70;;;17.20;99.90;;;;;;5042824;28;20703;-75
2021/05/21 07:55:21;;;;;;;7.30;6.90;;;17.30;99.90;;;;;;5043032;28;20198;-75
2021/05/21 07:57:47;;;;;;;6.83;6.43;;;17.40;99.90;;;;;;5026499;28;20210;-76
2021/05/21 08:00:15;;;;;;;4.50;3.90;;;17.50;99.90;;;;;;5029783;28;20193;-75
2021/05/21 08:02:42;;;;;;;3.57;3.37;;;17.50;99.90;;;;;;5028392;28;20689;-75
2021/05/21 08:05:09;;;;;;;6.27;5.97;;;17.50;99.90;;;;;;5041075;28;20288;-75
2021/05/21 08:07:35;;;;;;;6.77;6.23;;;17.50;99.90;;;;;;5021573;28;20210;-76
2021/05/21 08:10:05;;;;;;;6.20;5.80;;;17.50;99.90;;;;;;5046242;28;20278;-76
2021/05/21 08:12:32;;;;;;;6.40;6.00;;;17.60;99.90;;;;;;5039850;28;20203;-76
2021/05/21 08:14:58;;;;;;;6.03;5.73;;;17.50;99.90;;;;;;5046545;28;20201;-76
2021/05/21 08:17:25;;;;;;;6.03;5.63;;;17.60;99.90;;;;;;5041147;28;20211;-76
2021/05/21 08:19:51;;;;;;;5.83;5.33;;;17.60;99.90;;;;;;5043665;28;20595;-76
2021/05/21 08:22:17;;;;;;;3.90;3.60;;;17.70;99.90;;;;;;5040972;28;20217;-76
2021/05/21 08:24:43;;;;;;;4.20;3.90;;;17.70;99.90;;;;;;5021936;28;20226;-76
2021/05/21 08:27:10;;;;;;;4.50;4.20;;;17.70;99.90;;;;;;5023644;28;20665;-76
2021/05/21 08:29:37;;;;;;;3.43;2.90;;;17.80;99.90;;;;;;5039785;28;20208;-76
2021/05/21 08:32:04;;;;;;;3.27;3.03;;;17.70;99.90;;;;;;5043090;28;20669;-76
2021/05/21 08:34:30;;;;;;;5.50;5.00;;;17.70;99.90;;;;;;5020736;28;20225;-76
2021/05/21 08:36:57;;;;;;;3.67;3.33;;;17.60;99.90;;;;;;5038224;28;20204;-76
2021/05/21 08:39:23;;;;;;;2.80;2.57;;;17.60;99.90;;;;;;5041420;28;20201;-75
2021/05/21 08:41:52;;;;;;;2.27;1.90;;;17.50;99.90;;;;;;5021679;28;20221;-76
2021/05/21 08:44:19;;;;;;;1.60;1.50;;;17.40;99.90;;;;;;5065589;22;20232;-76
2021/05/21 08:46:46;;;;;;;6.10;5.80;;;17.40;99.90;;;;;;5021400;28;20704;-76
2021/05/21 08:49:14;;;;;;;2.23;1.80;;;17.40;99.90;;;;;;5029264;28;20201;-76
2021/05/21 08:51:40;;;;;;;2.50;2.13;;;17.40;99.90;;;;;;5039233;28;20189;-76
2021/05/21 08:54:07;;;;;;;6.33;5.73;;;17.30;99.90;;;;;;5039961;28;20689;-76
2021/05/21 08:56:34;;;;;;;5.77;5.37;;;17.20;99.90;;;;;;5026803;28;20294;-75
2021/05/21 08:59:02;;;;;;;5.73;5.33;;;17.10;99.90;;;;;;5042770;28;20205;-77
2021/05/21 09:01:28;;;;;;;5.53;5.03;;;17.00;99.90;;;;;;5019042;28;20217;-75
2021/05/21 09:04:01;;;;;;;5.50;5.20;;;16.90;99.90;;;;;;5041360;28;20241;-76
2021/05/21 09:06:28;;;;;;;5.67;5.37;;;16.90;99.90;;;;;;5014205;28;20202;-76
2021/05/21 09:08:56;;;;;;;5.87;5.40;;;16.70;99.90;;;;;;5015676;28;20198;-76
2021/05/21 09:11:31;;;;;;;6.40;6.00;;;16.60;99.90;;;;;;5042790;28;20184;-75
2021/05/21 09:13:59;;;;;;;6.23;5.60;;;16.50;99.90;;;;;;5023725;28;20220;-76
2021/05/21 09:16:27;;;;;;;5.93;5.53;;;16.30;99.90;;;;;;5024158;28;20202;-75
2021/05/21 09:19:10;;;;;;;6.63;6.20;;;16.20;99.90;;;;;;5017166;28;20624;-76
2021/05/21 09:21:53;;;;;;;6.93;6.53;;;16.10;99.90;;;;;;5032117;28;20242;-76
2021/05/21 09:24:23;;;;;;;6.13;5.70;;;16.10;99.90;;;;;;5024615;28;20215;-75
2021/05/21 09:26:50;;;;;;;6.50;6.10;;;16.00;99.90;;;;;;5020868;28;20248;-76
2021/05/21 09:29:31;;;;;;;6.70;6.30;;;16.10;99.90;;;;;;5044161;28;20203;-75
2021/05/21 09:31:57;;;;;;;6.00;5.60;;;16.10;99.90;;;;;;5029285;28;20203;-76
2021/05/21 09:34:31;;;;;;;5.93;5.57;;;16.20;99.90;;;;;;5023903;28;20715;-76
2021/05/21 09:36:57;;;;;;;5.93;5.63;;;16.30;99.90;;;;;;5048177;28;20656;-76
2021/05/21 09:39:24;;;;;;;6.50;6.00;;;16.40;99.90;;;;;;5041877;28;20199;-76
2021/05/21 09:41:52;;;;;;;6.60;6.20;;;16.50;99.90;;;;;;5030055;28;20227;-76
2021/05/21 09:44:20;;;;;;;6.00;5.70;;;16.60;99.90;;;;;;5046372;28;20221;-75
2021/05/21 09:46:49;;;;;;;6.30;6.00;;;16.70;99.90;;;;;;5005696;28;20200;-75
2021/05/21 09:49:26;;;;;;;6.40;5.90;;;16.90;99.90;;;;;;5048339;28;20647;-75
2021/05/21 09:51:53;;;;;;;6.30;5.80;;;17.00;99.90;;;;;;5012917;28;20208;-75
2021/05/21 09:54:20;;;;;;;6.47;5.97;;;17.10;99.90;;;;;;5040908;28;20220;-75
2021/05/21 09:57:03;;;;;;;6.03;5.63;;;17.20;99.90;;;;;;5044264;28;20187;-75
2021/05/21 09:59:40;;;;;;;6.00;5.60;;;17.30;99.90;;;;;;5025976;28;20203;-76
2021/05/21 10:02:25;;;;;;;6.03;5.63;;;17.30;99.90;;;;;;5033505;28;20228;-75
2021/05/21 10:04:53;;;;;;;5.70;5.40;;;17.20;99.90;;;;;;5035020;28;20259;-76
2021/05/21 10:07:20;;;;;;;6.23;5.73;;;17.00;99.90;;;;;;5036670;28;20717;-76
2021/05/21 10:09:47;;;;;;;6.30;5.80;;;16.90;99.90;;;;;;5041564;28;20693;-76
2021/05/21 10:12:13;;;;;;;5.80;5.50;;;16.80;99.90;;;;;;5034980;28;20230;-75
2021/05/21 10:14:41;;;;;;;2.50;2.30;;;16.70;99.90;;;;;;5052160;28;20317;-75
2021/05/21 10:17:09;;;;;;;5.70;5.30;;;16.50;99.90;;;;;;5046148;28;20610;-75
2021/05/21 10:19:39;;;;;;;5.80;5.37;;;16.40;99.90;;;;;;5040053;28;20684;-75
2021/05/21 10:22:08;;;;;;;5.60;5.30;;;16.30;99.90;;;;;;5040827;28;20220;-75
2021/05/21 10:24:38;;;;;;;5.70;5.40;;;16.20;99.90;;;;;;5040734;28;20230;-75
2021/05/21 10:27:11;;;;;;;5.40;5.10;;;16.10;99.90;;;;;;5034777;28;20289;-76
2021/05/21 10:29:38;;;;;;;6.03;5.50;;;16.00;99.90;;;;;;5027961;28;20649;-75
2021/05/21 10:32:14;;;;;;;6.20;5.80;;;15.90;99.90;;;;;;5032558;28;20701;-75
2021/05/21 10:34:43;;;;;;;6.20;5.90;;;15.90;99.90;;;;;;5020453;28;20254;-75
2021/05/21 10:37:32;;;;;;;6.37;5.97;;;15.80;99.90;;;;;;5047250;28;20238;-75
2021/05/21 10:40:27;;;;;;;6.00;5.63;;;15.80;99.90;;;;;;5043489;28;20693;-76
2021/05/21 10:43:16;;;;;;;5.67;5.37;;;15.70;99.90;;;;;;5043113;28;20258;-76
2021/05/21 10:46:19;;;;;;;5.60;5.20;;;15.70;99.90;;;;;;5032114;28;20208;-75
2021/05/21 10:48:51;;;;;;;6.20;5.70;;;15.70;99.90;;;;;;5026637;28;20200;-76
2021/05/21 10:51:18;;;;;;;6.00;5.70;;;15.60;99.90;;;;;;5017929;28;20204;-75
2021/05/21 10:53:46;;;;;;;5.70;5.40;;;15.60;99.90;;;;;;5026981;28;20697;-75
2021/05/21 10:56:13;;;;;;;5.97;5.50;;;15.50;99.90;;;;;;5025274;28;20222;-76
2021/05/21 10:58:44;;;;;;;5.70;5.40;;;15.50;99.90;;;;;;5040328;28;20196;-76
2021/05/21 11:01:18;;;;;;;6.10;5.80;;;15.50;99.90;;;;;;5028791;28;20232;-75
2021/05/21 11:04:08;;;;;;;6.40;6.00;;;15.50;99.90;;;;;;5018819;28;20215;-75
2021/05/21 11:06:45;;;;;;;5.53;5.23;;;15.50;99.90;;;;;;5014143;28;20206;-75
2021/05/21 11:09:13;;;;;;;5.70;5.40;;;15.50;99.90;;;;;;5041889;28;20199;-75
2021/05/21 11:11:58;;;;;;;5.70;5.40;;;15.50;99.90;;;;;;5023509;28;20192;-75
2021/05/21 11:14:37;;;;;;;6.20;5.80;;;15.60;99.90;;;;;;5039345;28;20219;-75
2021/05/21 11:17:27;;;;;;;6.00;5.70;;;15.60;99.90;;;;;;5027244;28;20217;-75
2021/05/21 11:19:55;;;;;;;5.83;5.53;;;15.50;99.90;;;;;;4988855;28;20207;-75
2021/05/21 11:22:31;;;;;;;6.00;5.60;;;15.60;99.90;;;;;;5045551;28;20211;-76
2021/05/21 11:25:01;;;;;;;6.07;5.67;;;15.60;99.90;;;;;;5011752;28;20593;-75
2021/05/21 11:27:28;;;;;;;5.90;5.50;;;15.70;99.90;;;;;;5034109;28;20200;-76
2021/05/21 11:29:56;;;;;;;5.60;5.30;;;15.80;99.90;;;;;;5035981;28;20228;-75
2021/05/21 11:32:23;;;;;;;6.10;5.70;;;16.00;99.90;;;;;;5027807;28;20185;-75
2021/05/21 11:34:50;;;;;;;5.70;5.40;;;16.20;99.90;;;;;;5039926;28;20630;-76
2021/05/21 11:37:20;;;;;;;5.90;5.60;;;16.30;99.90;;;;;;5046483;28;20686;-75
2021/05/21 11:39:47;;;;;;;5.70;5.40;;;16.50;99.90;;;;;;5013386;28;20202;-75
2021/05/21 11:42:14;;;;;;;5.80;5.40;;;16.50;99.90;;;;;;5026888;28;20223;-75
2021/05/21 11:44:46;;;;;;;5.57;5.23;;;16.60;99.90;;;;;;5039167;28;20234;-75
2021/05/21 11:47:20;;;;;;;5.83;5.47;;;16.50;99.90;;;;;;5023478;28;20207;-75
2021/05/21 11:49:46;;;;;;;5.87;5.47;;;16.50;99.90;;;;;;5038039;28;20269;-75
2021/05/21 11:52:12;;;;;;;5.53;5.23;;;16.60;99.90;;;;;;5034031;28;20198;-75
2021/05/21 11:54:40;;;;;;;5.60;5.30;;;16.50;99.90;;;;;;5025383;28;20227;-75
2021/05/21 11:57:07;;;;;;;6.07;5.77;;;16.40;99.90;;;;;;5037754;28;20271;-75
2021/05/21 11:59:34;;;;;;;5.90;5.60;;;16.30;99.90;;;;;;5046041;28;20634;-75
2021/05/21 12:02:02;;;;;;;5.50;5.20;;;16.20;99.90;;;;;;5018517;28;20232;-75
2021/05/21 12:04:31;;;;;;;6.03;5.57;;;16.20;99.90;;;;;;5042931;28;20293;-76
2021/05/21 12:07:00;;;;;;;6.20;5.80;;;16.20;99.90;;;;;;5009735;28;20579;-76
2021/05/21 12:09:27;;;;;;;5.70;5.40;;;16.20;99.90;;;;;;5034178;28;20679;-76
2021/05/21 12:11:55;;;;;;;5.90;5.60;;;16.20;99.90;;;;;;5020989;28;20206;-75
2021/05/21 12:14:23;;;;;;;5.50;5.30;;;16.30;99.90;;;;;;5033255;28;20239;-75
2021/05/21 12:16:53;;;;;;;5.93;5.53;;;16.30;99.90;;;;;;5031116;28;20270;-76
2021/05/21 12:19:20;;;;;;;5.80;5.50;;;16.20;99.90;;;;;;5028859;28;20202;-75
2021/05/21 12:21:49;;;;;;;6.10;5.60;;;16.30;99.90;;;;;;5031091;28;20564;-76
2021/05/21 12:24:18;;;;;;;5.80;5.50;;;16.30;99.90;;;;;;5030964;28;20237;-75
2021/05/21 12:26:48;;;;;;;5.83;5.50;;;16.30;99.90;;;;;;5013371;28;20196;-75
2021/05/21 12:29:15;;;;;;;5.90;5.60;;;16.30;99.90;;;;;;5013940;28;20668;-76
2021/05/21 12:31:46;;;;;;;5.90;5.50;;;16.20;99.90;;;;;;5036204;28;20682;-76
2021/05/21 12:34:17;;;;;;;5.70;5.40;;;16.30;99.90;;;;;;5050381;22;20237;-77
2021/05/21 12:36:45;;;;;;;5.70;5.40;;;16.20;99.90;;;;;;5016600;28;20684;-78
2021/05/21 12:39:12;;;;;;;6.83;6.23;;;16.20;99.90;;;;;;5009183;28;20199;-76
2021/05/21 12:41:41;;;;;;;5.90;5.60;;;16.10;99.90;;;;;;5006544;28;20639;-75
2021/05/21 12:44:10;;;;;;;6.20;5.80;;;16.20;99.90;;;;;;5026379;28;20324;-76
2021/05/21 12:46:40;;;;;;;6.50;6.00;;;16.20;99.90;;;;;;5034634;28;20205;-75
2021/05/21 12:49:08;;;;;;;6.00;5.70;;;16.20;99.90;;;;;;5034440;28;20203;-75
2021/05/21 12:51:36;;;;;;;6.17;5.57;;;16.20;99.90;;;;;;5034575;28;20192;-75